createdAt,value
2019-05-18T00:00:30.162Z,24.73
2019-05-18T00:03:02.122Z,23.70
2019-05-18T00:05:34.128Z,23.80
2019-05-18T00:08:06.251Z,24.67
2019-05-18T00:10:38.393Z,25.13
2019-05-18T00:13:10.377Z,26.87
2019-05-18T00:15:42.365Z,26.30
2019-05-18T00:18:14.335Z,28.33
2019-05-18T00:20:46.742Z,26.97
2019-05-18T00:23:19.225Z,26.97
2019-05-18T00:25:51.217Z,28.67
2019-05-18T00:28:23.258Z,26.43
2019-05-18T00:30:55.662Z,25.37
2019-05-18T00:33:27.762Z,30.30
2019-05-18T00:36:00.213Z,30.10
2019-05-18T00:38:32.199Z,27.53
2019-05-18T00:41:04.236Z,29.00
2019-05-18T00:43:36.308Z,26.60
2019-05-18T00:46:08.537Z,25.30
2019-05-18T00:48:40.857Z,27.13
2019-05-18T00:51:12.829Z,26.30
2019-05-18T00:53:44.786Z,26.47
2019-05-18T00:56:16.772Z,28.70
2019-05-18T00:58:48.783Z,26.93
2019-05-18T01:01:20.869Z,29.13
2019-05-18T01:03:52.854Z,29.27
2019-05-18T01:06:24.897Z,25.53
2019-05-18T01:08:56.859Z,27.70
2019-05-18T01:11:28.894Z,25.70
2019-05-18T01:14:00.875Z,27.43
2019-05-18T01:16:32.853Z,25.33
2019-05-18T01:19:04.831Z,26.97
2019-05-18T01:21:36.847Z,22.60
2019-05-18T01:24:08.789Z,25.00
2019-05-18T01:26:40.785Z,25.80
2019-05-18T01:29:12.719Z,24.10
2019-05-18T01:31:44.810Z,22.33
2019-05-18T01:34:16.865Z,24.50
2019-05-18T01:36:48.931Z,26.70
2019-05-18T01:39:20.953Z,25.77
2019-05-18T01:41:52.974Z,28.87
2019-05-18T01:44:25.019Z,27.73
2019-05-18T01:46:56.983Z,33.07
2019-05-18T01:49:29.038Z,30.80
2019-05-18T01:52:01.026Z,29.53
2019-05-18T01:54:33.071Z,31.20
2019-05-18T01:57:05.121Z,35.10
2019-05-18T01:59:37.096Z,28.43
2019-05-18T02:02:09.105Z,29.40
2019-05-18T02:04:41.236Z,35.30
2019-05-18T02:07:13.497Z,28.50
2019-05-18T02:09:45.749Z,31.70
2019-05-18T02:12:17.716Z,32.53
2019-05-18T02:14:49.947Z,33.97
2019-05-18T02:17:22.003Z,31.53
2019-05-18T02:19:54.225Z,31.53
2019-05-18T02:22:26.205Z,27.10
2019-05-18T02:24:58.238Z,24.43
2019-05-18T02:27:30.180Z,23.73
2019-05-18T02:30:02.197Z,25.43
2019-05-18T02:32:34.472Z,25.57
2019-05-18T02:35:07.471Z,24.03
2019-05-18T02:37:39.504Z,23.03
2019-05-18T02:40:11.970Z,24.17
2019-05-18T02:42:44.002Z,20.73
2019-05-18T02:45:15.965Z,19.73
2019-05-18T02:47:48.205Z,21.57
2019-05-18T02:50:20.240Z,21.33
2019-05-18T02:52:52.281Z,23.20
2019-05-18T02:55:24.652Z,20.70
2019-05-18T02:57:57.058Z,24.23
2019-05-18T03:00:29.100Z,22.33
2019-05-18T03:03:01.190Z,27.33
2019-05-18T03:05:33.369Z,27.03
2019-05-18T03:08:05.314Z,24.33
2019-05-18T03:10:37.304Z,23.13
2019-05-18T03:13:09.318Z,23.33
2019-05-18T03:15:41.501Z,23.33
2019-05-18T03:18:13.570Z,21.53
2019-05-18T03:20:45.598Z,22.33
2019-05-18T03:23:17.887Z,23.40
2019-05-18T03:25:49.946Z,18.40
2019-05-18T03:28:21.957Z,18.97
2019-05-18T03:30:53.943Z,20.73
2019-05-18T03:33:29.431Z,22.10
2019-05-18T03:35:59.845Z,22.30
2019-05-18T03:38:31.868Z,23.77
2019-05-18T03:41:04.409Z,23.83
2019-05-18T03:43:36.460Z,24.87
2019-05-18T03:46:08.514Z,22.20
2019-05-18T03:48:40.916Z,26.73
2019-05-18T03:51:12.907Z,22.17
2019-05-18T03:53:45.006Z,20.27
2019-05-18T03:56:17.031Z,22.37
2019-05-18T03:58:49.097Z,22.57
2019-05-18T04:01:21.253Z,22.77
2019-05-18T04:03:53.516Z,22.00
2019-05-18T04:06:25.839Z,19.10
2019-05-18T04:08:58.180Z,20.43
2019-05-18T04:11:30.499Z,17.67
2019-05-18T04:14:07.653Z,24.63
2019-05-18T04:16:36.786Z,22.03
2019-05-18T04:19:08.775Z,21.53
2019-05-18T04:21:41.261Z,23.93
2019-05-18T04:24:13.190Z,20.63
2019-05-18T04:26:45.426Z,20.30
2019-05-18T04:29:17.418Z,20.57
2019-05-18T04:31:49.376Z,24.33
2019-05-18T04:34:21.452Z,25.60
2019-05-18T04:36:53.609Z,26.97
2019-05-18T04:39:25.772Z,28.43
2019-05-18T04:41:57.777Z,29.93
2019-05-18T04:44:29.875Z,31.63
2019-05-18T04:47:01.994Z,30.43
2019-05-18T04:49:33.974Z,29.27
2019-05-18T04:52:06.047Z,28.80
2019-05-18T04:54:39.341Z,27.60
2019-05-18T04:57:11.334Z,27.33
2019-05-18T04:59:43.287Z,29.00
2019-05-18T05:02:15.328Z,27.00
2019-05-18T05:04:47.465Z,27.13
2019-05-18T05:07:19.610Z,31.23
2019-05-18T05:09:51.957Z,28.30
2019-05-18T05:12:23.989Z,29.00
2019-05-18T05:17:45.423Z,29.03
2019-05-18T05:20:20.071Z,27.03
2019-05-18T05:22:51.554Z,28.00
2019-05-18T05:25:23.540Z,28.70
2019-05-18T05:28:12.813Z,29.90
2019-05-18T05:31:02.120Z,30.07
2019-05-18T05:33:51.780Z,31.10
2019-05-18T05:36:23.912Z,25.13
2019-05-18T05:38:56.091Z,25.60
2019-05-18T05:41:28.163Z,34.30
2019-05-18T05:44:00.198Z,26.93
2019-05-18T05:46:32.296Z,22.37
2019-05-18T05:49:04.784Z,21.80
2019-05-18T05:51:36.788Z,25.03
2019-05-18T05:54:08.797Z,24.73
2019-05-18T05:56:40.795Z,28.40
2019-05-18T05:59:12.890Z,23.13
2019-05-18T06:01:45.074Z,26.13
2019-05-18T06:04:17.138Z,29.47
2019-05-18T06:06:49.301Z,28.87
2019-05-18T06:09:21.525Z,29.77
2019-05-18T06:11:53.579Z,30.03
2019-05-18T06:14:25.793Z,29.27
2019-05-18T06:17:15.436Z,32.20
2019-05-18T06:20:10.505Z,32.07
2019-05-18T06:22:59.592Z,31.00
2019-05-18T06:25:49.016Z,32.90
2019-05-18T06:28:38.592Z,28.97
2019-05-18T06:31:28.649Z,34.23
2019-05-18T06:34:18.199Z,32.33
2019-05-18T06:37:07.719Z,31.80
2019-05-18T06:39:57.162Z,30.30
2019-05-18T06:42:46.837Z,38.57
2019-05-18T06:45:36.324Z,33.07
2019-05-18T06:48:25.957Z,31.23
2019-05-18T06:51:15.255Z,33.57
2019-05-18T06:54:04.748Z,38.60
2019-05-18T06:56:55.018Z,35.47
2019-05-18T06:59:45.406Z,35.90
2019-05-18T07:02:35.025Z,39.43
2019-05-18T07:05:24.630Z,33.60
2019-05-18T07:08:13.870Z,37.03
2019-05-18T07:11:03.168Z,36.53
2019-05-18T07:13:52.711Z,34.23
2019-05-18T07:16:42.285Z,36.17
2019-05-18T07:19:31.713Z,36.50
2019-05-18T07:22:03.887Z,38.60
2019-05-18T07:24:35.965Z,40.63
2019-05-18T07:27:07.970Z,37.43
2019-05-18T07:29:39.997Z,38.37
2019-05-18T07:32:12.027Z,41.93
2019-05-18T07:34:44.288Z,40.67
2019-05-18T07:37:16.448Z,43.23
2019-05-18T07:39:48.954Z,45.03
2019-05-18T07:42:21.355Z,40.00
2019-05-18T07:44:53.458Z,39.83
2019-05-18T07:47:25.892Z,39.10
2019-05-18T07:49:57.942Z,39.10
2019-05-18T07:52:30.030Z,43.33
2019-05-18T07:55:02.301Z,43.03
2019-05-18T07:57:34.606Z,44.70
2019-05-18T08:00:08.195Z,43.53
2019-05-18T08:02:40.570Z,46.50
2019-05-18T08:05:12.722Z,47.50
2019-05-18T08:07:44.745Z,45.60
2019-05-18T08:10:21.425Z,47.73
2019-05-18T08:12:53.653Z,48.10
2019-05-18T08:15:25.822Z,49.57
2019-05-18T08:17:57.780Z,48.83
2019-05-18T08:20:29.927Z,53.77
2019-05-18T08:23:02.206Z,49.27
2019-05-18T08:25:34.584Z,57.13
2019-05-18T08:28:06.595Z,54.83
2019-05-18T08:30:38.619Z,58.83
2019-05-18T08:33:12.328Z,55.07
2019-05-18T08:35:44.726Z,56.07
2019-05-18T08:38:16.745Z,62.63
2019-05-18T08:40:48.983Z,56.57
2019-05-18T08:43:21.296Z,56.57
2019-05-18T08:45:53.277Z,61.60
2019-05-18T08:48:25.248Z,56.70
2019-05-18T08:50:57.555Z,57.07
2019-05-18T08:53:29.812Z,56.37
2019-05-18T08:56:01.856Z,60.03
2019-05-18T08:58:33.863Z,58.10
2019-05-18T09:01:06.276Z,58.60
2019-05-18T09:03:38.257Z,57.13
2019-05-18T09:06:10.306Z,59.23
2019-05-18T09:08:42.627Z,61.30
2019-05-18T09:11:14.695Z,57.73
2019-05-18T09:13:46.753Z,55.43
2019-05-18T09:16:18.845Z,53.03
2019-05-18T09:18:50.903Z,55.83
2019-05-18T09:21:22.926Z,53.23
2019-05-18T09:23:54.963Z,55.33
2019-05-18T09:26:27.004Z,50.73
2019-05-18T09:28:58.953Z,51.00
2019-05-18T09:31:30.948Z,54.07
2019-05-18T09:34:03.015Z,46.83
2019-05-18T09:36:34.972Z,45.77
2019-05-18T09:39:08.279Z,46.70
2019-05-18T09:41:40.528Z,43.47
2019-05-18T09:44:12.762Z,46.60
2019-05-18T09:46:45.120Z,42.90
2019-05-18T09:49:17.250Z,39.57
2019-05-18T09:51:49.641Z,41.37
2019-05-18T09:54:21.612Z,44.97
2019-05-18T09:56:53.604Z,41.27
2019-05-18T09:59:25.630Z,37.63
2019-05-18T10:01:57.682Z,35.17
2019-05-18T10:04:29.725Z,38.70
2019-05-18T10:07:01.774Z,37.83
2019-05-18T10:09:39.198Z,36.03
2019-05-18T10:12:07.820Z,38.33
2019-05-18T10:14:39.862Z,32.50
2019-05-18T10:17:12.786Z,31.90
2019-05-18T10:19:45.154Z,28.27
2019-05-18T10:22:17.188Z,34.40
2019-05-18T10:24:49.225Z,30.13
2019-05-18T10:27:21.268Z,27.57
2019-05-18T10:29:53.255Z,28.97
2019-05-18T10:32:25.200Z,36.33
2019-05-18T10:34:57.467Z,29.10
2019-05-18T10:37:29.724Z,26.40
2019-05-18T10:40:01.698Z,28.00
2019-05-18T10:42:33.663Z,32.20
2019-05-18T10:45:10.202Z,29.77
2019-05-18T10:47:42.402Z,29.00
2019-05-18T10:50:15.509Z,30.00
2019-05-18T10:52:47.806Z,26.67
2019-05-18T10:55:21.435Z,26.57
2019-05-18T10:57:53.423Z,24.53
2019-05-18T11:00:26.091Z,27.23
2019-05-18T11:02:58.062Z,23.97
2019-05-18T11:05:30.285Z,22.50
2019-05-18T11:08:02.297Z,23.97
2019-05-18T11:10:34.588Z,23.07
2019-05-18T11:13:06.659Z,24.57
2019-05-18T11:15:38.786Z,25.73
2019-05-18T11:18:10.773Z,22.80
2019-05-18T11:20:42.723Z,18.57
2019-05-18T11:23:14.677Z,21.40
2019-05-18T11:25:46.737Z,17.83
2019-05-18T11:28:18.672Z,17.47
2019-05-18T11:30:50.717Z,18.83
2019-05-18T11:33:23.147Z,20.87
2019-05-18T11:35:55.125Z,19.33
2019-05-18T11:38:27.114Z,17.40
2019-05-18T11:40:59.885Z,20.87
2019-05-18T11:43:31.925Z,18.97
2019-05-18T11:46:04.021Z,19.00
2019-05-18T11:48:35.994Z,16.93
2019-05-18T11:51:08.139Z,18.30
2019-05-18T11:53:40.599Z,16.97
2019-05-18T11:56:12.686Z,17.60
2019-05-18T11:58:44.737Z,20.27
2019-05-18T12:01:16.731Z,18.57
2019-05-18T12:03:49.505Z,18.43
2019-05-18T12:06:21.562Z,18.93
2019-05-18T12:08:53.567Z,18.57
2019-05-18T12:11:25.985Z,21.00
2019-05-18T12:13:58.057Z,20.63
2019-05-18T12:16:30.115Z,21.80
2019-05-18T12:19:02.090Z,18.93
2019-05-18T12:21:34.412Z,17.07
2019-05-18T12:24:15.538Z,19.20
2019-05-18T12:26:40.521Z,19.00
2019-05-18T12:29:12.516Z,17.67
2019-05-18T12:31:44.562Z,20.37
2019-05-18T12:34:16.610Z,24.60
2019-05-18T12:36:48.578Z,18.20
2019-05-18T12:39:20.809Z,21.77
2019-05-18T12:41:52.765Z,20.67
2019-05-18T12:44:25.075Z,19.13
2019-05-18T12:46:57.229Z,17.33
2019-05-18T12:49:29.295Z,18.00
2019-05-18T12:52:01.603Z,20.13
2019-05-18T12:54:45.563Z,22.40
2019-05-18T12:57:07.377Z,20.60
2019-05-18T12:59:39.441Z,20.47
2019-05-18T13:02:11.436Z,21.33
2019-05-18T13:04:43.405Z,22.60
2019-05-18T13:07:15.452Z,19.13
2019-05-18T13:09:47.444Z,19.90
2019-05-18T13:12:19.499Z,18.27
2019-05-18T13:14:51.995Z,20.13
2019-05-18T13:17:24.244Z,19.40
2019-05-18T13:19:56.253Z,21.70
2019-05-18T13:22:28.280Z,19.80
2019-05-18T13:25:00.392Z,18.13
2019-05-18T13:27:39.550Z,22.20
2019-05-18T13:30:09.254Z,18.93
2019-05-18T13:32:41.683Z,19.43
2019-05-18T13:35:16.181Z,24.17
2019-05-18T13:37:48.169Z,19.57
2019-05-18T13:40:20.805Z,23.00
2019-05-18T13:42:53.076Z,20.93
2019-05-18T13:45:25.492Z,22.73
2019-05-18T13:47:57.722Z,20.40
2019-05-18T13:50:29.746Z,17.60
2019-05-18T13:53:01.776Z,17.77
2019-05-18T13:55:33.739Z,18.33
2019-05-18T13:58:06.012Z,16.77
2019-05-18T14:00:38.065Z,20.33
2019-05-18T14:03:10.097Z,20.13
2019-05-18T14:05:42.135Z,21.37
2019-05-18T14:08:15.702Z,17.67
2019-05-18T14:10:48.039Z,16.90
2019-05-18T14:13:20.128Z,17.90
2019-05-18T14:15:52.097Z,16.77
2019-05-18T14:18:24.112Z,17.53
2019-05-18T14:20:56.319Z,20.07
2019-05-18T14:23:28.473Z,18.07
2019-05-18T14:26:00.524Z,22.40
2019-05-18T14:28:32.633Z,17.20
2019-05-18T14:31:04.769Z,16.70
2019-05-18T14:33:36.790Z,17.23
2019-05-18T14:36:09.017Z,17.47
2019-05-18T14:38:41.408Z,21.13
2019-05-18T14:41:14.002Z,19.67
2019-05-18T14:43:46.009Z,18.30
2019-05-18T14:46:18.049Z,22.77
2019-05-18T14:48:50.444Z,17.27
2019-05-18T14:51:22.470Z,19.67
2019-05-18T14:53:54.705Z,17.80
2019-05-18T14:56:26.963Z,18.73
2019-05-18T14:58:58.940Z,16.47
2019-05-18T15:01:31.237Z,16.70
2019-05-18T15:04:03.606Z,19.70
2019-05-18T15:06:35.678Z,19.43
2019-05-18T15:09:07.942Z,15.33
2019-05-18T15:11:39.988Z,13.73
2019-05-18T15:14:12.056Z,13.87
2019-05-18T15:16:44.097Z,17.67
2019-05-18T15:19:16.103Z,15.63
2019-05-18T15:21:48.215Z,12.30
2019-05-18T15:24:20.255Z,12.97
2019-05-18T15:26:52.285Z,15.00
2019-05-18T15:29:24.588Z,12.93
2019-05-18T15:31:56.682Z,18.13
2019-05-18T15:34:28.725Z,20.43
2019-05-18T15:37:00.698Z,13.93
2019-05-18T15:39:32.809Z,12.37
2019-05-18T15:42:05.200Z,14.10
2019-05-18T15:44:37.648Z,14.00
2019-05-18T15:47:10.476Z,17.17
2019-05-18T15:49:42.454Z,15.73
2019-05-18T15:52:14.489Z,19.77
2019-05-18T15:54:46.639Z,12.23
2019-05-18T15:57:18.643Z,18.67
2019-05-18T15:59:50.613Z,16.60
2019-05-18T16:02:22.770Z,15.33
2019-05-18T16:04:54.805Z,15.07
2019-05-18T16:07:26.842Z,15.77
2019-05-18T16:09:58.975Z,14.83
2019-05-18T16:12:31.032Z,15.33
2019-05-18T16:15:03.517Z,17.50
2019-05-18T16:17:39.298Z,12.70
2019-05-18T16:20:11.905Z,13.20
2019-05-18T16:22:44.531Z,14.80
2019-05-18T16:25:16.968Z,12.30
2019-05-18T16:27:49.697Z,13.00
2019-05-18T16:30:22.578Z,21.87
2019-05-18T16:32:54.637Z,15.00
2019-05-18T16:35:26.814Z,11.70
2019-05-18T16:37:58.751Z,15.33
2019-05-18T16:40:30.714Z,12.87
2019-05-18T16:43:10.402Z,16.93
2019-05-18T16:45:43.505Z,11.37
2019-05-18T16:48:17.963Z,14.37
2019-05-18T16:50:51.947Z,13.73
2019-05-18T16:53:28.744Z,11.97
2019-05-18T16:56:01.461Z,18.30
2019-05-18T16:58:33.793Z,17.30
2019-05-18T17:01:05.891Z,15.67
2019-05-18T17:03:39.925Z,22.13
2019-05-18T17:06:11.995Z,22.53
2019-05-18T17:08:43.962Z,22.17
2019-05-18T17:11:17.840Z,24.90
2019-05-18T17:13:49.889Z,25.03
2019-05-18T17:16:21.962Z,26.33
2019-05-18T17:18:53.997Z,24.80
2019-05-18T17:21:26.038Z,25.60
2019-05-18T17:23:58.712Z,34.77
2019-05-18T17:26:30.745Z,30.07
2019-05-18T17:29:03.151Z,28.73
2019-05-18T17:31:41.802Z,29.23
2019-05-18T17:34:14.966Z,32.13
2019-05-18T17:36:52.465Z,30.57
2019-05-18T17:39:22.484Z,33.37
2019-05-18T17:41:54.652Z,33.77
2019-05-18T17:44:26.653Z,34.33
2019-05-18T17:46:58.961Z,30.93
2019-05-18T17:49:30.973Z,32.27
2019-05-18T17:52:03.085Z,35.03
2019-05-18T17:54:35.194Z,33.53
2019-05-18T17:57:09.039Z,30.37
2019-05-18T17:59:41.310Z,30.87
2019-05-18T18:02:13.380Z,31.07
2019-05-18T18:04:45.808Z,32.80
2019-05-18T18:07:17.832Z,33.67
2019-05-18T18:09:49.794Z,33.80
2019-05-18T18:12:21.856Z,32.93
2019-05-18T18:14:53.832Z,32.33
2019-05-18T18:17:25.799Z,35.87
2019-05-18T18:19:57.956Z,32.50
2019-05-18T18:22:30.098Z,32.50
2019-05-18T18:25:02.436Z,34.97
2019-05-18T18:27:34.379Z,30.93
2019-05-18T18:30:11.065Z,36.17
2019-05-18T18:32:43.692Z,35.37
2019-05-18T18:35:15.744Z,32.57
2019-05-18T18:37:47.730Z,31.03
2019-05-18T18:40:19.697Z,34.83
2019-05-18T18:42:51.737Z,30.83
2019-05-18T18:45:23.729Z,32.70
2019-05-18T18:47:55.751Z,28.87
2019-05-18T18:50:27.799Z,25.57
2019-05-18T18:52:59.911Z,31.03
2019-05-18T18:55:32.348Z,27.80
2019-05-18T18:58:05.322Z,26.90
2019-05-18T19:00:37.879Z,30.53
2019-05-18T19:03:09.885Z,26.07
2019-05-18T19:05:41.939Z,32.83
2019-05-18T19:08:13.906Z,30.37
2019-05-18T19:10:45.947Z,28.87
2019-05-18T19:13:17.909Z,25.17
2019-05-18T19:15:49.973Z,24.03
2019-05-18T19:18:24.385Z,26.37
2019-05-18T19:20:56.650Z,27.93
2019-05-18T19:23:28.639Z,29.80
2019-05-18T19:26:01.988Z,25.87
2019-05-18T19:28:34.128Z,27.10
2019-05-18T19:31:06.240Z,27.53
2019-05-18T19:33:39.289Z,25.57
2019-05-18T19:36:11.315Z,28.77
2019-05-18T19:38:43.519Z,27.03
2019-05-18T19:41:16.809Z,23.73
2019-05-18T19:43:48.895Z,25.30
2019-05-18T19:46:20.936Z,25.47
2019-05-18T19:48:54.023Z,21.17
2019-05-18T19:51:26.411Z,24.07
2019-05-18T19:53:58.756Z,25.17
2019-05-18T19:56:38.282Z,22.53
2019-05-18T19:59:05.244Z,21.93
2019-05-18T20:01:37.602Z,25.23
2019-05-18T20:04:09.594Z,22.67
2019-05-18T20:06:41.615Z,22.60
2019-05-18T20:09:13.845Z,20.93
2019-05-18T20:11:45.849Z,20.30
2019-05-18T20:14:17.884Z,19.80
2019-05-18T20:16:51.211Z,19.90
2019-05-18T20:19:37.910Z,22.13
2019-05-18T20:21:57.335Z,18.63
2019-05-18T20:24:39.479Z,19.93
2019-05-18T20:27:11.481Z,23.87
2019-05-18T20:29:43.873Z,20.47
2019-05-18T20:32:16.033Z,20.97
2019-05-18T20:34:48.333Z,21.80
2019-05-18T20:37:20.745Z,18.97
2019-05-18T20:39:52.870Z,20.07
2019-05-18T20:42:24.963Z,21.77
2019-05-18T20:44:58.205Z,19.10
2019-05-18T20:47:30.380Z,23.40
2019-05-18T20:50:03.772Z,18.40
2019-05-18T20:52:35.808Z,22.57
2019-05-18T20:55:08.118Z,20.90
2019-05-18T20:57:40.098Z,19.80
2019-05-18T21:00:12.110Z,19.93
2019-05-18T21:02:44.451Z,17.27
2019-05-18T21:05:16.696Z,17.90
2019-05-18T21:07:48.948Z,23.90
2019-05-18T21:10:22.357Z,23.13
2019-05-18T21:12:54.467Z,21.77
2019-05-18T21:15:45.760Z,17.13
2019-05-18T21:18:17.793Z,24.00
2019-05-18T21:20:51.944Z,23.10
2019-05-18T21:23:24.213Z,24.97
2019-05-18T21:25:56.585Z,25.50
2019-05-18T21:28:28.929Z,21.87
2019-05-18T21:31:02.895Z,25.67
2019-05-18T21:33:34.950Z,24.73
2019-05-18T21:36:07.277Z,26.80
2019-05-18T21:38:39.582Z,25.80
2019-05-18T21:41:11.601Z,27.77
2019-05-18T21:43:43.610Z,24.67
2019-05-18T21:46:17.190Z,24.97
2019-05-18T21:48:49.172Z,29.50
2019-05-18T21:51:21.516Z,26.53
2019-05-18T21:53:53.571Z,25.03
2019-05-18T21:56:25.564Z,29.43
2019-05-18T21:59:10.744Z,25.50
2019-05-18T22:01:37.382Z,24.87
2019-05-18T22:04:09.359Z,26.77
2019-05-18T22:06:41.732Z,29.27
2019-05-18T22:09:13.793Z,25.77
2019-05-18T22:11:45.792Z,25.40
2019-05-18T22:14:18.034Z,23.20
2019-05-18T22:16:50.381Z,30.50
2019-05-18T22:19:22.706Z,25.50
2019-05-18T22:21:57.495Z,32.87
2019-05-18T22:24:29.866Z,31.73
2019-05-18T22:27:02.205Z,30.37
2019-05-18T22:29:34.194Z,33.37
2019-05-18T22:32:06.528Z,29.57
2019-05-18T22:34:38.591Z,27.57
2019-05-18T22:37:10.555Z,32.43
2019-05-18T22:39:42.676Z,30.80
2019-05-18T22:42:14.914Z,31.63
2019-05-18T22:44:47.307Z,30.57
2019-05-18T22:47:19.575Z,27.43
2019-05-18T22:49:51.629Z,25.57
2019-05-18T22:52:23.856Z,24.30
2019-05-18T22:54:55.887Z,24.37
2019-05-18T22:57:27.929Z,25.90
2019-05-18T22:59:59.987Z,26.73
2019-05-18T23:02:32.044Z,25.73
2019-05-18T23:05:04.921Z,30.17
2019-05-18T23:07:37.139Z,29.53
2019-05-18T23:10:09.325Z,29.07
2019-05-18T23:12:41.336Z,28.77
2019-05-18T23:15:13.953Z,24.30
2019-05-18T23:17:46.041Z,23.97
2019-05-18T23:20:18.192Z,29.60
2019-05-18T23:22:50.895Z,25.63
2019-05-18T23:25:22.870Z,22.90
2019-05-18T23:27:54.900Z,24.83
2019-05-18T23:30:26.965Z,26.93
2019-05-18T23:32:58.991Z,25.57
2019-05-18T23:35:31.133Z,28.87
2019-05-18T23:38:03.140Z,23.90
2019-05-18T23:40:35.151Z,21.87
2019-05-18T23:43:07.166Z,24.57
2019-05-18T23:45:39.258Z,28.30
2019-05-18T23:48:11.237Z,28.80
2019-05-18T23:50:43.264Z,28.77
2019-05-18T23:53:15.261Z,29.37
2019-05-18T23:55:47.301Z,31.83
2019-05-18T23:58:19.226Z,27.57
